Time;durP1;ratioP1;P1;durP2;ratioP2;P2;SDS_P1;SDS_P2;PMS_P1;PMS_P2;Temp;Humidity;BMP_temperature;BMP_pressure;BME280_temperature;BME280_humidity;BME280_pressure;Samples;Min_cycle;Max_cycle;Signal;HPM_P1;HPM_P2
2023/01/14 00:00:50;;;;;;;8.13;2.77;;;6.20;99.90;;;;;;2621419;46;20949;31
2023/01/14 00:03:25;;;;;;;7.83;3.17;;;6.10;99.90;;;;;;2603370;54;20050;31
2023/01/14 00:05:59;;;;;;;7.47;3.13;;;6.20;99.90;;;;;;2603433;54;20026;31
2023/01/14 00:08:37;;;;;;;7.72;2.95;;;6.10;99.90;;;;;;2603419;54;20927;31
2023/01/14 00:11:12;;;;;;;7.07;3.38;;;6.10;99.90;;;;;;2603220;54;20029;31
2023/01/14 00:13:47;;;;;;;5.97;2.78;;;6.10;99.90;;;;;;2603557;54;20030;31
2023/01/14 00:16:22;;;;;;;10.17;2.57;;;6.10;99.90;;;;;;2603214;54;20085;31
2023/01/14 00:18:56;;;;;;;9.52;2.92;;;6.10;99.90;;;;;;2603180;54;21006;31
2023/01/14 00:21:30;;;;;;;9.60;3.38;;;6.00;99.90;;;;;;2603604;54;20035;31
2023/01/14 00:24:19;;;;;;;6.90;3.30;;;6.00;99.90;;;;;;2603618;54;20033;31
2023/01/14 00:26:54;;;;;;;6.53;2.85;;;5.90;99.90;;;;;;2603192;54;20031;31
2023/01/14 00:29:32;;;;;;;6.55;2.90;;;5.90;99.90;;;;;;2603480;54;20840;31
2023/01/14 00:32:07;;;;;;;5.20;2.53;;;5.90;99.90;;;;;;2622043;46;20055;31
2023/01/14 00:34:43;;;;;;;7.90;2.58;;;5.90;99.90;;;;;;2603425;54;20270;31
2023/01/14 00:37:18;;;;;;;6.60;2.60;;;5.80;99.90;;;;;;2621560;46;20093;31
2023/01/14 00:40:00;;;;;;;5.53;2.83;;;5.80;99.90;;;;;;2603305;54;20888;31
2023/01/14 00:42:34;;;;;;;4.80;2.35;;;5.80;99.90;;;;;;2603336;54;20062;31
2023/01/14 00:45:14;;;;;;;5.40;2.72;;;5.70;99.90;;;;;;2603078;54;20879;31
2023/01/14 00:47:48;;;;;;;5.55;2.45;;;5.70;99.90;;;;;;2602102;54;20050;31
2023/01/14 00:50:28;;;;;;;9.95;3.30;;;5.70;99.90;;;;;;2603260;54;20890;31
2023/01/14 00:53:03;;;;;;;7.15;2.90;;;5.70;99.90;;;;;;2602955;54;20141;31
2023/01/14 00:55:40;;;;;;;4.65;2.55;;;5.70;99.90;;;;;;2603391;54;20081;31
2023/01/14 00:58:16;;;;;;;7.10;3.38;;;5.70;99.90;;;;;;2603174;54;20022;31
2023/01/14 01:03:22;;;;;;;5.03;2.75;;;5.60;99.90;;;;;;2603287;54;20089;31
2023/01/14 01:05:56;;;;;;;8.55;3.15;;;5.60;99.90;;;;;;2603097;54;20042;31
2023/01/14 01:08:32;;;;;;;6.20;3.05;;;5.60;99.90;;;;;;2603298;54;20030;31
2023/01/14 01:11:11;;;;;;;6.93;2.95;;;5.60;99.90;;;;;;2603038;54;20774;31
2023/01/14 01:13:46;;;;;;;7.65;2.83;;;5.60;99.90;;;;;;2621378;46;20026;31
2023/01/14 01:16:24;;;;;;;5.20;2.55;;;5.60;99.90;;;;;;2602984;54;20949;31
2023/01/14 01:18:58;;;;;;;4.28;2.35;;;5.60;99.90;;;;;;2603242;54;20825;31
2023/01/14 01:21:34;;;;;;;5.55;2.42;;;5.50;99.90;;;;;;2603282;54;20048;31
2023/01/14 01:24:09;;;;;;;6.85;2.90;;;5.60;99.90;;;;;;2603116;54;20027;31
2023/01/14 01:26:48;;;;;;;9.57;2.38;;;5.50;99.90;;;;;;2603039;54;20825;31
2023/01/14 01:29:22;;;;;;;6.18;2.90;;;5.50;99.90;;;;;;2602970;54;20918;31
2023/01/14 01:31:56;;;;;;;6.72;2.42;;;5.60;99.90;;;;;;2603386;54;20077;31
2023/01/14 01:34:31;;;;;;;4.35;2.00;;;5.50;99.90;;;;;;2603205;54;20854;31
2023/01/14 01:37:05;;;;;;;5.28;2.33;;;5.50;99.90;;;;;;2602962;54;20093;31
2023/01/14 01:39:40;;;;;;;7.25;2.88;;;5.50;99.90;;;;;;2603215;54;20053;31
2023/01/14 01:42:21;;;;;;;7.00;2.63;;;5.50;99.90;;;;;;2602916;54;20053;31
2023/01/14 01:45:23;;;;;;;7.55;2.97;;;5.60;99.90;;;;;;2603079;54;20026;31
2023/01/14 01:47:59;;;;;;;3.97;2.10;;;5.50;99.90;;;;;;2602724;54;20932;31
2023/01/14 01:50:35;;;;;;;5.15;2.15;;;5.40;99.90;;;;;;2602882;54;20022;31
2023/01/14 01:53:10;;;;;;;3.77;1.70;;;5.40;99.90;;;;;;2621616;47;20046;31
2023/01/14 01:55:46;;;;;;;4.70;2.38;;;5.50;99.90;;;;;;2602955;54;20254;31
2023/01/14 01:58:26;;;;;;;3.63;1.42;;;5.40;99.90;;;;;;2603136;54;20784;31
2023/01/14 02:01:00;;;;;;;7.35;1.55;;;5.40;99.90;;;;;;2603634;54;20128;31
2023/01/14 02:03:38;;;;;;;4.05;1.30;;;5.40;99.90;;;;;;2603846;54;20840;31
2023/01/14 02:06:13;;;;;;;6.00;2.25;;;5.40;99.90;;;;;;2603689;54;20819;31
2023/01/14 02:08:48;;;;;;;4.82;1.35;;;5.40;99.90;;;;;;2603885;54;20034;31
2023/01/14 02:12:01;;;;;;;3.67;1.52;;;5.40;99.90;;;;;;2603649;54;20932;31
2023/01/14 02:14:49;;;;;;;5.70;1.67;;;5.40;99.90;;;;;;2603709;54;20180;31
2023/01/14 02:17:28;;;;;;;3.17;1.35;;;5.30;99.90;;;;;;2603663;54;20026;31
2023/01/14 02:20:18;;;;;;;5.37;1.63;;;5.30;99.90;;;;;;2603712;54;20030;31
2023/01/14 02:23:12;;;;;;;5.15;1.60;;;5.40;99.90;;;;;;2603920;54;21067;31
2023/01/14 02:26:20;;;;;;;5.85;1.52;;;5.30;99.90;;;;;;2603851;54;20026;31
2023/01/14 02:29:22;;;;;;;3.55;1.55;;;5.30;99.90;;;;;;2603593;54;20155;31
2023/01/14 02:32:00;;;;;;;3.88;1.52;;;5.30;99.90;;;;;;2603499;54;20101;31
2023/01/14 02:34:39;;;;;;;5.38;1.90;;;5.30;99.90;;;;;;2603639;54;20985;31
2023/01/14 02:37:13;;;;;;;4.67;1.90;;;5.30;99.90;;;;;;2603672;54;20081;31
2023/01/14 02:39:51;;;;;;;5.10;2.00;;;5.20;99.90;;;;;;2603785;54;20027;31
2023/01/14 02:45:18;;;;;;;4.53;1.55;;;5.30;99.90;;;;;;2621988;46;20029;31
2023/01/14 02:47:57;;;;;;;3.55;1.50;;;5.20;99.90;;;;;;2603749;54;20916;31
2023/01/14 02:50:33;;;;;;;6.32;1.60;;;5.20;99.90;;;;;;2603526;54;20026;31
2023/01/14 02:53:11;;;;;;;4.40;2.25;;;5.20;99.90;;;;;;2603453;54;20096;31
2023/01/14 02:55:47;;;;;;;5.78;1.48;;;5.20;99.90;;;;;;2603904;54;20914;31
2023/01/14 02:58:41;;;;;;;4.25;1.55;;;5.20;99.90;;;;;;2603482;54;20903;31
2023/01/14 03:04:00;;;;;;;5.35;1.30;;;5.10;99.90;;;;;;2603933;54;20042;31
2023/01/14 03:06:40;;;;;;;3.42;1.48;;;5.10;99.90;;;;;;2603476;54;20961;31
2023/01/14 03:09:14;;;;;;;3.90;1.50;;;5.10;99.90;;;;;;2603736;54;20087;31
2023/01/14 03:11:52;;;;;;;5.07;1.98;;;5.10;99.90;;;;;;2603489;54;20026;31
2023/01/14 03:14:28;;;;;;;5.15;1.48;;;5.20;99.90;;;;;;2603491;54;20105;31
2023/01/14 03:17:04;;;;;;;5.30;1.65;;;5.10;99.90;;;;;;2603479;54;20017;31
2023/01/14 03:19:44;;;;;;;3.80;1.30;;;5.10;99.90;;;;;;2603523;54;20049;31
2023/01/14 03:22:19;;;;;;;3.58;1.50;;;5.10;99.90;;;;;;2603571;54;20038;31
2023/01/14 03:24:54;;;;;;;4.47;2.30;;;5.10;99.90;;;;;;2603391;54;20141;31
2023/01/14 03:27:30;;;;;;;4.43;1.65;;;5.10;99.90;;;;;;2603644;54;21006;31
2023/01/14 03:30:07;;;;;;;6.60;2.22;;;5.10;99.90;;;;;;2603458;54;20890;31
2023/01/14 03:35:16;;;;;;;4.18;1.27;;;5.10;99.90;;;;;;2603602;54;20113;31
2023/01/14 03:37:52;;;;;;;3.40;1.27;;;5.10;99.90;;;;;;2603205;54;20026;31
2023/01/14 03:40:26;;;;;;;5.13;1.52;;;5.00;99.90;;;;;;2603607;54;20037;31
2023/01/14 03:43:03;;;;;;;3.60;1.30;;;5.00;99.90;;;;;;2603453;54;20790;31
2023/01/14 03:45:38;;;;;;;2.07;0.93;;;5.00;99.90;;;;;;2603618;54;20022;31
2023/01/14 03:48:12;;;;;;;4.55;1.35;;;5.00;99.90;;;;;;2603525;54;20104;31
2023/01/14 03:50:55;;;;;;;4.35;1.10;;;5.00;99.90;;;;;;2603265;54;20824;31
2023/01/14 03:53:31;;;;;;;4.47;1.10;;;5.00;99.90;;;;;;2603313;54;20044;31
2023/01/14 03:56:07;;;;;;;;;;;5.00;99.90;;;;;;2603716;54;20056;31
2023/01/14 03:58:45;;;;;;;4.00;1.40;;;5.10;99.90;;;;;;2603552;54;20064;31
2023/01/14 04:01:22;;;;;;;3.35;1.25;;;5.10;99.90;;;;;;2603387;54;20027;31
2023/01/14 04:03:56;;;;;;;5.30;1.63;;;5.10;99.90;;;;;;2603493;54;25040;31
2023/01/14 04:06:34;;;;;;;5.50;1.50;;;5.10;99.90;;;;;;2603379;54;21005;31
2023/01/14 04:09:09;;;;;;;4.47;1.60;;;5.10;99.90;;;;;;2603407;54;20029;31
2023/01/14 04:11:44;;;;;;;3.92;1.27;;;5.20;99.90;;;;;;2603572;54;20022;31
2023/01/14 04:17:20;;;;;;;6.05;1.85;;;5.30;99.90;;;;;;2603246;54;20023;31
2023/01/14 04:19:55;;;;;;;4.32;1.33;;;5.20;99.90;;;;;;2603388;54;20856;31
2023/01/14 04:22:32;;;;;;;3.72;1.27;;;5.20;99.90;;;;;;2602890;54;20027;31
2023/01/14 04:25:07;;;;;;;5.87;1.47;;;5.20;99.90;;;;;;2603104;54;20023;31
2023/01/14 04:27:41;;;;;;;3.70;1.20;;;5.20;99.90;;;;;;2603221;54;20111;31
2023/01/14 04:30:16;;;;;;;4.35;1.50;;;5.20;99.90;;;;;;2603432;54;20029;31
2023/01/14 04:32:50;;;;;;;4.70;1.90;;;5.20;99.90;;;;;;2603293;54;20584;31
2023/01/14 04:35:24;;;;;;;3.00;1.38;;;5.20;99.90;;;;;;2603153;54;20802;31
2023/01/14 04:38:01;;;;;;;3.20;1.60;;;5.20;99.90;;;;;;2603242;54;20085;31
2023/01/14 04:40:35;;;;;;;3.88;1.65;;;5.20;99.90;;;;;;2603155;54;20030;31
2023/01/14 04:43:09;;;;;;;5.80;2.45;;;5.20;99.90;;;;;;2603178;54;20030;31
2023/01/14 04:45:45;;;;;;;3.10;1.40;;;5.30;99.90;;;;;;2603125;54;19934;31
2023/01/14 04:48:20;;;;;;;3.60;1.60;;;5.20;99.90;;;;;;2603118;54;20023;31
2023/01/14 04:50:55;;;;;;;3.78;1.52;;;5.20;99.90;;;;;;2603516;54;20875;31
2023/01/14 04:53:33;;;;;;;3.22;1.52;;;5.20;99.90;;;;;;2603225;54;20031;31
2023/01/14 04:56:09;;;;;;;3.13;1.27;;;5.30;99.90;;;;;;2603383;54;20049;31
2023/01/14 04:58:44;;;;;;;;;;;5.20;99.90;;;;;;2603452;54;20147;31
2023/01/14 05:01:18;;;;;;;3.83;1.58;;;5.20;99.90;;;;;;2603115;54;20798;31
2023/01/14 05:03:54;;;;;;;3.35;1.20;;;5.20;99.90;;;;;;2603157;54;20853;31
2023/01/14 05:06:29;;;;;;;;;;;5.20;99.90;;;;;;2603460;54;20034;31
2023/01/14 05:09:07;;;;;;;4.07;1.80;;;5.10;99.90;;;;;;2603362;54;19940;31
2023/01/14 05:11:41;;;;;;;4.75;1.50;;;5.10;99.90;;;;;;2603073;54;20881;31
2023/01/14 05:14:16;;;;;;;3.63;1.25;;;5.00;99.90;;;;;;2603199;54;20023;31
2023/01/14 05:16:51;;;;;;;3.38;1.40;;;5.10;99.90;;;;;;2603125;54;20026;31
2023/01/14 05:19:29;;;;;;;5.93;1.45;;;5.00;99.90;;;;;;2602286;54;20030;31
2023/01/14 05:22:04;;;;;;;4.45;1.05;;;5.00;99.90;;;;;;2603037;54;20865;31
2023/01/14 05:24:42;;;;;;;5.88;1.33;;;5.10;99.90;;;;;;2602969;54;20916;31
2023/01/14 05:27:16;;;;;;;4.25;1.17;;;5.00;99.90;;;;;;2603211;54;20968;31
2023/01/14 05:29:51;;;;;;;3.10;0.95;;;5.00;99.90;;;;;;2603273;54;20183;31
2023/01/14 05:32:26;;;;;;;3.38;1.25;;;5.10;99.90;;;;;;2602924;54;20026;31
2023/01/14 05:35:00;;;;;;;4.10;1.02;;;5.00;99.90;;;;;;2602874;54;20849;31
2023/01/14 05:37:35;;;;;;;6.20;1.70;;;5.10;99.90;;;;;;2603173;54;20980;31
2023/01/14 05:40:13;;;;;;;6.13;1.10;;;5.20;99.90;;;;;;2603011;54;20037;31
2023/01/14 05:45:41;;;;;;;3.72;1.45;;;5.10;99.90;;;;;;2603089;54;20905;31
2023/01/14 05:48:15;;;;;;;4.93;1.50;;;5.10;99.90;;;;;;2602868;54;20161;31
2023/01/14 05:50:52;;;;;;;4.45;1.30;;;5.10;99.90;;;;;;2603008;54;20914;31
2023/01/14 05:53:26;;;;;;;4.90;1.20;;;5.20;99.90;;;;;;2602894;54;20031;31
2023/01/14 05:56:04;;;;;;;3.97;1.50;;;5.20;99.90;;;;;;2603307;54;20031;31
2023/01/14 05:58:39;;;;;;;6.67;1.60;;;5.20;99.90;;;;;;2602193;54;20052;31
2023/01/14 06:06:50;;;;;;;4.78;1.70;;;5.20;99.90;;;;;;2602956;54;20882;31
2023/01/14 06:09:22;;;;;;;3.15;1.60;;;5.10;99.90;;;;;;2603237;31;20026;31
2023/01/14 06:12:05;;;;;;;4.85;1.90;;;5.10;99.90;;;;;;2602890;54;20033;31
2023/01/14 06:14:40;;;;;;;4.77;1.53;;;5.10;99.90;;;;;;2603073;54;20898;31
2023/01/14 06:17:21;;;;;;;3.90;1.40;;;5.20;99.90;;;;;;2603083;54;20034;31
2023/01/14 06:19:56;;;;;;;4.30;1.30;;;5.10;99.90;;;;;;2602928;54;20050;31
2023/01/14 06:22:30;;;;;;;6.10;1.70;;;5.10;99.90;;;;;;2602865;54;20842;31
2023/01/14 06:25:04;;;;;;;4.95;1.50;;;5.20;99.90;;;;;;2602964;54;20297;31
2023/01/14 06:27:42;;;;;;;5.60;1.73;;;5.10;99.90;;;;;;2602814;54;20041;31
2023/01/14 06:30:18;;;;;;;9.82;1.95;;;5.20;99.90;;;;;;2602772;54;21190;31
2023/01/14 06:32:52;;;;;;;5.43;1.85;;;5.20;99.90;;;;;;2602647;54;20046;31
2023/01/14 06:35:26;;;;;;;3.33;1.57;;;5.20;99.90;;;;;;2602812;54;19961;31
2023/01/14 06:38:01;;;;;;;5.00;1.93;;;5.20;99.90;;;;;;2603036;54;20255;31
2023/01/14 06:40:35;;;;;;;4.25;1.92;;;5.20;99.90;;;;;;2602569;54;20242;31
2023/01/14 06:43:12;;;;;;;7.55;1.98;;;5.20;99.90;;;;;;2602720;54;20026;31
2023/01/14 06:45:46;;;;;;;6.20;2.25;;;5.20;99.90;;;;;;2603311;54;20038;31
2023/01/14 06:48:21;;;;;;;7.53;2.45;;;5.20;99.90;;;;;;2603785;54;20939;31
2023/01/14 06:50:56;;;;;;;9.75;4.10;;;5.20;99.90;;;;;;2603546;54;20775;31
2023/01/14 06:53:32;;;;;;;6.03;1.97;;;5.20;99.90;;;;;;2603518;54;20903;31
2023/01/14 06:56:07;;;;;;;6.13;2.10;;;5.20;99.90;;;;;;2603451;54;20978;31
2023/01/14 06:58:44;;;;;;;4.32;2.00;;;5.20;99.90;;;;;;2603640;54;20033;31
2023/01/14 07:01:19;;;;;;;5.47;2.28;;;5.20;99.90;;;;;;2603522;54;20033;31
2023/01/14 07:03:55;;;;;;;4.67;1.87;;;5.20;99.90;;;;;;2603482;54;20022;31
2023/01/14 07:06:29;;;;;;;6.05;2.20;;;5.20;99.90;;;;;;2603642;54;20924;31
2023/01/14 07:09:05;;;;;;;4.75;2.50;;;5.20;99.90;;;;;;2603566;54;20081;31
2023/01/14 07:11:42;;;;;;;4.85;2.30;;;5.20;99.90;;;;;;2621948;46;19951;31
2023/01/14 07:14:20;;;;;;;6.20;2.50;;;5.20;99.90;;;;;;2603511;54;20022;31
2023/01/14 07:19:27;;;;;;;7.00;2.85;;;5.20;99.90;;;;;;2621867;46;20112;31
2023/01/14 07:22:02;;;;;;;4.93;2.35;;;5.20;99.90;;;;;;2603641;54;19942;31
2023/01/14 07:24:38;;;;;;;7.75;2.70;;;5.20;99.90;;;;;;2603580;54;19942;31
2023/01/14 07:27:13;;;;;;;9.60;2.75;;;5.20;99.90;;;;;;2603595;54;20053;31
2023/01/14 07:29:52;;;;;;;5.85;2.40;;;5.20;99.90;;;;;;2603609;54;20157;31
2023/01/14 07:32:27;;;;;;;4.10;2.10;;;5.20;99.90;;;;;;2603373;54;20057;31
2023/01/14 07:35:02;;;;;;;5.40;2.17;;;5.30;99.90;;;;;;2603576;54;20038;31
2023/01/14 07:37:36;;;;;;;5.95;2.25;;;5.60;99.90;;;;;;2603629;54;20349;31
2023/01/14 07:40:12;;;;;;;7.35;1.95;;;5.80;99.90;;;;;;2603581;54;20056;31
2023/01/14 07:42:48;;;;;;;6.13;2.50;;;6.30;99.90;;;;;;2603399;54;20110;31
2023/01/14 07:45:25;;;;;;;5.07;1.95;;;6.90;99.90;;;;;;2621711;46;22656;31
2023/01/14 07:48:00;;;;;;;6.20;2.50;;;7.40;99.90;;;;;;2603537;54;20037;31
2023/01/14 07:50:35;;;;;;;6.93;2.13;;;7.60;99.90;;;;;;2603561;54;20056;31
2023/01/14 07:53:12;;;;;;;6.15;1.85;;;7.60;99.90;;;;;;2603355;54;20793;31
2023/01/14 07:55:47;;;;;;;7.75;2.20;;;7.60;99.90;;;;;;2603263;54;19985;31
2023/01/14 07:58:23;;;;;;;5.63;1.70;;;7.50;99.90;;;;;;2603481;54;20026;31
2023/01/14 08:01:00;;;;;;;6.18;2.40;;;7.30;99.90;;;;;;2603386;54;20815;31
2023/01/14 08:03:36;;;;;;;8.02;2.30;;;7.30;99.90;;;;;;2603279;54;20960;31
2023/01/14 08:06:13;;;;;;;6.20;2.00;;;7.20;99.90;;;;;;2603540;54;20112;31
2023/01/14 08:08:50;;;;;;;4.78;1.80;;;7.20;99.90;;;;;;2603211;54;20033;31
2023/01/14 08:11:26;;;;;;;4.18;1.83;;;7.10;99.90;;;;;;2603281;54;20943;31
2023/01/14 08:14:01;;;;;;;4.55;1.85;;;7.10;99.90;;;;;;2603426;54;20027;31
2023/01/14 08:16:40;;;;;;;5.30;2.13;;;7.10;99.90;;;;;;2603500;54;20848;31
2023/01/14 08:19:17;;;;;;;5.10;2.25;;;7.00;99.90;;;;;;2603370;54;20871;31
2023/01/14 08:21:54;;;;;;;6.35;1.92;;;7.00;99.90;;;;;;2603377;54;20926;31
2023/01/14 08:24:29;;;;;;;5.05;1.70;;;7.00;99.90;;;;;;2603136;54;20031;31
2023/01/14 08:27:05;;;;;;;6.50;2.20;;;7.00;99.90;;;;;;2603365;54;20777;31
2023/01/14 08:29:40;;;;;;;5.63;2.00;;;7.00;99.90;;;;;;2603177;54;20923;31
2023/01/14 08:32:19;;;;;;;10.15;2.20;;;7.10;99.90;;;;;;2603101;54;20034;31
2023/01/14 08:34:54;;;;;;;6.85;2.50;;;7.10;99.90;;;;;;2603342;54;20163;31
2023/01/14 08:37:29;;;;;;;7.80;1.95;;;7.30;99.90;;;;;;2621466;46;20810;31
2023/01/14 08:40:04;;;;;;;9.45;2.45;;;7.40;99.90;;;;;;2603218;54;20858;31
2023/01/14 08:42:42;;;;;;;4.53;1.73;;;7.50;99.90;;;;;;2603241;54;20027;31
2023/01/14 08:45:17;;;;;;;8.05;2.15;;;7.50;99.90;;;;;;2603434;54;20034;31
2023/01/14 08:47:55;;;;;;;8.15;2.70;;;7.50;99.90;;;;;;2603233;54;20032;31
2023/01/14 08:50:30;;;;;;;6.15;1.90;;;7.50;99.90;;;;;;2603390;54;20061;31
2023/01/14 08:53:04;;;;;;;8.57;2.10;;;7.50;99.90;;;;;;2602404;54;22333;31
2023/01/14 08:55:39;;;;;;;5.25;1.60;;;7.50;99.90;;;;;;2603125;54;20030;31
2023/01/14 08:58:14;;;;;;;5.60;1.90;;;7.50;99.90;;;;;;2603136;54;20875;31
2023/01/14 09:00:50;;;;;;;5.23;1.53;;;7.50;99.90;;;;;;2603407;54;20026;31
2023/01/14 09:03:35;;;;;;;7.78;2.08;;;7.50;99.90;;;;;;2603101;54;20905;31
2023/01/14 09:06:12;;;;;;;5.30;1.65;;;7.50;99.90;;;;;;2602974;54;20987;31
2023/01/14 09:17:10;;;;;;;5.75;1.90;;;7.60;99.90;;;;;;2603083;54;20828;31
2023/01/14 09:19:49;;;;;;;5.60;1.88;;;7.60;99.90;;;;;;2621355;46;20037;31
2023/01/14 09:22:27;;;;;;;5.97;1.50;;;7.70;99.90;;;;;;2603175;54;20923;31
2023/01/14 09:25:01;;;;;;;3.77;1.50;;;7.80;99.90;;;;;;2602988;54;20030;31
2023/01/14 09:27:37;;;;;;;2.97;1.52;;;8.00;99.90;;;;;;2603159;54;20787;31
2023/01/14 09:30:13;;;;;;;;;;;8.10;99.90;;;;;;2603388;54;20030;31
2023/01/14 09:32:48;;;;;;;5.80;1.60;;;8.10;99.90;;;;;;2603268;54;20037;31
2023/01/14 09:35:27;;;;;;;6.00;1.75;;;8.20;99.90;;;;;;2603102;54;20934;31
2023/01/14 09:38:03;;;;;;;4.75;1.42;;;8.20;99.90;;;;;;2603083;54;20030;31
2023/01/14 09:40:40;;;;;;;6.82;1.45;;;8.20;99.90;;;;;;2602412;54;20035;31
2023/01/14 09:43:19;;;;;;;6.93;1.50;;;8.20;99.90;;;;;;2603184;54;20026;31
2023/01/14 09:45:59;;;;;;;6.80;1.87;;;8.20;99.90;;;;;;2602845;54;20234;31
2023/01/14 09:48:34;;;;;;;8.95;1.80;;;8.20;99.90;;;;;;2602970;54;20251;31
2023/01/14 09:51:17;;;;;;;4.90;1.40;;;8.20;99.90;;;;;;2602924;54;20088;31
2023/01/14 09:54:02;;;;;;;6.00;1.65;;;8.30;99.90;;;;;;2603036;54;20022;31
2023/01/14 09:56:37;;;;;;;4.72;1.40;;;8.20;99.90;;;;;;2603121;54;20077;31
2023/01/14 09:59:14;;;;;;;7.28;1.58;;;8.30;99.90;;;;;;2603083;54;20030;31
2023/01/14 10:01:52;;;;;;;6.38;1.42;;;8.30;99.90;;;;;;2602856;54;20099;31
2023/01/14 10:04:26;;;;;;;6.80;1.25;;;8.30;99.90;;;;;;2603042;54;20031;31
2023/01/14 10:07:04;;;;;;;7.45;1.50;;;8.40;99.90;;;;;;2603175;54;20026;31
2023/01/14 10:09:40;;;;;;;5.63;1.57;;;8.40;99.90;;;;;;2602930;54;20063;31
2023/01/14 10:12:18;;;;;;;2.75;1.40;;;8.40;99.90;;;;;;2603149;54;20888;31
2023/01/14 10:15:02;;;;;;;6.32;1.90;;;8.40;99.90;;;;;;2603038;54;20022;31
2023/01/14 10:17:40;;;;;;;9.25;1.88;;;8.40;99.90;;;;;;2602866;54;20951;31
2023/01/14 10:20:17;;;;;;;3.30;0.93;;;8.40;99.90;;;;;;2603091;54;20097;31
2023/01/14 10:22:57;;;;;;;4.50;1.50;;;8.50;99.90;;;;;;2602974;54;20974;31
2023/01/14 10:25:32;;;;;;;4.75;1.50;;;8.60;99.90;;;;;;2603548;54;20097;31
2023/01/14 10:28:10;;;;;;;4.55;1.20;;;8.80;99.90;;;;;;2603744;54;20030;31
2023/01/14 10:30:45;;;;;;;9.65;1.80;;;9.00;99.90;;;;;;2603640;54;20827;31
2023/01/14 10:33:21;;;;;;;6.80;1.80;;;9.20;99.90;;;;;;2602769;54;20038;31
2023/01/14 10:36:00;;;;;;;7.70;1.90;;;9.20;99.90;;;;;;2622034;46;20060;31
2023/01/14 10:38:40;;;;;;;4.25;1.60;;;9.20;99.90;;;;;;2603493;54;20904;31
2023/01/14 10:41:15;;;;;;;5.93;1.52;;;9.20;99.90;;;;;;2603979;54;20817;31
2023/01/14 10:44:00;;;;;;;7.20;1.07;;;9.20;99.90;;;;;;2603787;54;20026;31
2023/01/14 10:46:35;;;;;;;7.72;1.63;;;9.30;99.90;;;;;;2603485;54;19942;31
2023/01/14 10:49:14;;;;;;;5.03;1.23;;;9.40;99.90;;;;;;2603645;54;20027;31
2023/01/14 10:51:50;;;;;;;4.63;1.77;;;9.40;99.90;;;;;;2603747;54;20030;31
2023/01/14 10:54:30;;;;;;;4.35;1.23;;;9.50;99.90;;;;;;2603628;54;20112;31
2023/01/14 10:57:11;;;;;;;4.20;1.30;;;9.60;99.90;;;;;;2603603;54;20889;31
2023/01/14 10:59:52;;;;;;;5.50;2.70;;;9.80;99.90;;;;;;2603673;54;20023;31
2023/01/14 11:02:37;;;;;;;3.90;1.33;;;9.80;99.90;;;;;;2603348;54;20065;31
2023/01/14 11:07:44;;;;;;;5.03;1.33;;;9.80;99.90;;;;;;2622018;46;20074;31
2023/01/14 11:10:25;;;;;;;4.32;1.35;;;9.70;99.90;;;;;;2603752;54;20906;31
2023/01/14 11:13:17;;;;;;;4.82;1.33;;;9.70;99.90;;;;;;2603743;54;20022;31
2023/01/14 11:15:52;;;;;;;4.90;1.48;;;9.60;99.90;;;;;;2603695;54;20577;31
2023/01/14 11:18:30;;;;;;;6.13;1.50;;;9.50;99.90;;;;;;2702057;39;21484;31
2023/01/14 11:21:10;;;;;;;4.88;1.30;;;9.50;99.90;;;;;;2621943;46;20517;31
2023/01/14 11:23:47;;;;;;;3.08;1.25;;;9.50;99.90;;;;;;2603816;54;20026;31
2023/01/14 11:26:22;;;;;;;4.40;1.10;;;9.40;99.90;;;;;;2603557;54;20026;31
2023/01/14 11:29:06;;;;;;;;;;;9.40;99.90;;;;;;2603550;54;20806;31
2023/01/14 11:31:41;;;;;;;9.00;1.50;;;9.40;99.90;;;;;;2621782;46;20005;31
2023/01/14 11:34:24;;;;;;;4.18;2.05;;;9.40;99.90;;;;;;2603424;54;20967;31
2023/01/14 11:37:10;;;;;;;3.88;1.40;;;9.30;99.90;;;;;;2603528;54;20161;31
2023/01/14 11:39:49;;;;;;;4.90;1.60;;;9.30;99.90;;;;;;2603776;54;20109;31
2023/01/14 11:42:34;;;;;;;6.80;1.60;;;9.30;99.90;;;;;;2621558;46;20036;31
2023/01/14 11:45:21;;;;;;;6.15;1.70;;;9.30;99.90;;;;;;2720224;39;20480;31
2023/01/14 11:47:58;;;;;;;7.72;1.75;;;9.30;99.90;;;;;;2701777;39;20458;31
2023/01/14 11:50:34;;;;;;;10.20;2.08;;;9.20;99.90;;;;;;2603421;54;20022;31
2023/01/14 11:53:16;;;;;;;5.40;1.95;;;9.20;99.90;;;;;;2603565;54;20762;31
2023/01/14 11:55:51;;;;;;;6.15;2.10;;;9.20;99.90;;;;;;2603420;54;20029;31
2023/01/14 11:58:28;;;;;;;6.85;1.90;;;9.10;99.90;;;;;;2602517;54;20026;31
2023/01/14 12:01:08;;;;;;;6.13;1.63;;;9.20;99.90;;;;;;2603301;54;20884;31
2023/01/14 12:03:46;;;;;;;6.60;1.80;;;9.20;99.90;;;;;;2701811;39;20458;31
2023/01/14 12:06:22;;;;;;;5.60;1.52;;;9.20;99.90;;;;;;2603450;54;20561;31
2023/01/14 12:08:58;;;;;;;7.25;1.80;;;9.20;99.90;;;;;;2603387;54;20029;31
2023/01/14 12:11:37;;;;;;;4.85;1.48;;;9.30;99.90;;;;;;2603187;54;20624;31
2023/01/14 12:17:06;;;;;;;7.80;2.05;;;9.30;99.90;;;;;;2603447;54;20554;31
2023/01/14 12:19:44;;;;;;;4.75;1.75;;;9.30;99.90;;;;;;2603508;54;20176;31
2023/01/14 12:22:20;;;;;;;4.65;1.90;;;9.30;99.90;;;;;;2603352;54;20811;31
2023/01/14 12:25:01;;;;;;;5.23;1.67;;;9.30;99.90;;;;;;2603194;54;20987;31
2023/01/14 12:27:46;;;;;;;6.17;1.90;;;9.20;99.90;;;;;;2603352;54;20770;31
2023/01/14 12:30:40;;;;;;;7.95;2.50;;;9.20;99.90;;;;;;2621496;46;20096;31
2023/01/14 12:33:25;;;;;;;4.18;1.50;;;9.20;99.90;;;;;;2603169;54;20909;31
2023/01/14 12:36:02;;;;;;;5.27;1.30;;;9.10;99.90;;;;;;2701644;39;20551;31
2023/01/14 12:47:08;;;;;;;6.80;1.45;;;9.10;99.90;;;;;;2603236;54;20050;31
2023/01/14 12:49:47;;;;;;;6.10;1.65;;;9.00;99.90;;;;;;2603143;54;20848;31
2023/01/14 12:52:27;;;;;;;3.50;1.30;;;9.00;99.90;;;;;;2603204;54;20879;31
2023/01/14 12:55:02;;;;;;;7.28;1.48;;;9.00;99.90;;;;;;2603259;54;20026;31
2023/01/14 12:57:38;;;;;;;6.80;1.50;;;9.00;99.90;;;;;;2603262;54;20030;31
2023/01/14 13:00:21;;;;;;;5.05;1.30;;;9.00;99.90;;;;;;2603218;54;20806;31
2023/01/14 13:02:57;;;;;;;3.35;1.08;;;9.00;99.90;;;;;;2604997;46;20918;31
2023/01/14 13:05:39;;;;;;;6.40;1.30;;;8.90;99.90;;;;;;2603194;54;20029;31
2023/01/14 13:08:21;;;;;;;4.35;1.45;;;8.90;99.90;;;;;;2603162;54;20239;31
2023/01/14 13:11:03;;;;;;;5.28;1.08;;;8.90;99.90;;;;;;2603060;54;20073;31
2023/01/14 13:13:41;;;;;;;5.75;1.10;;;8.80;99.90;;;;;;2603201;54;20101;31
2023/01/14 13:16:37;;;;;;;5.55;1.60;;;8.80;99.90;;;;;;2603235;54;20124;31
2023/01/14 13:19:37;;;;;;;6.47;1.10;;;8.70;99.90;;;;;;2603311;54;20917;31
2023/01/14 13:22:16;;;;;;;7.22;1.40;;;8.70;99.90;;;;;;2603326;54;20804;31
2023/01/14 13:25:08;;;;;;;5.70;1.25;;;8.70;99.90;;;;;;2611549;46;21339;31
2023/01/14 13:27:47;;;;;;;3.20;1.00;;;8.70;99.90;;;;;;2602814;54;20593;31
2023/01/14 13:30:38;;;;;;;5.20;2.00;;;8.60;99.90;;;;;;2603335;54;20925;31
2023/01/14 13:33:13;;;;;;;4.63;1.20;;;8.60;99.90;;;;;;2603416;54;20066;31
2023/01/14 13:36:17;;;;;;;2.63;0.95;;;8.60;99.90;;;;;;2603224;54;20811;31
2023/01/14 13:39:10;;;;;;;7.27;1.47;;;8.50;99.90;;;;;;2603103;54;20052;31
2023/01/14 13:41:46;;;;;;;6.10;1.60;;;8.50;99.90;;;;;;2602929;54;20321;31
2023/01/14 13:44:23;;;;;;;;;;;8.50;99.90;;;;;;2603174;54;20239;31
2023/01/14 13:47:01;;;;;;;8.43;1.58;;;8.40;99.90;;;;;;2603188;54;20459;31
2023/01/14 13:49:37;;;;;;;5.85;1.45;;;8.40;99.90;;;;;;2621579;47;20026;31
2023/01/14 13:52:18;;;;;;;5.05;1.42;;;8.40;99.90;;;;;;2602950;54;20913;31
2023/01/14 13:54:58;;;;;;;6.80;2.08;;;8.30;99.90;;;;;;2603535;54;20052;31
2023/01/14 13:57:36;;;;;;;5.40;1.90;;;8.30;99.90;;;;;;2603534;54;20790;31
2023/01/14 14:00:37;;;;;;;5.78;1.88;;;8.20;99.90;;;;;;2603956;54;20089;31
2023/01/14 14:03:12;;;;;;;6.97;2.25;;;8.20;99.90;;;;;;2603451;54;20057;31
2023/01/14 14:05:49;;;;;;;6.45;1.70;;;8.20;99.90;;;;;;2603815;54;20089;31
2023/01/14 14:08:27;;;;;;;4.53;1.55;;;8.20;99.90;;;;;;2603683;54;20030;31
2023/01/14 14:11:12;;;;;;;5.50;1.83;;;8.10;99.90;;;;;;2604022;54;20022;31
2023/01/14 14:16:37;;;;;;;8.85;2.97;;;8.10;99.90;;;;;;2603597;54;20030;31
2023/01/14 14:19:17;;;;;;;4.07;1.70;;;8.10;99.90;;;;;;2603832;54;20799;31
2023/01/14 14:21:55;;;;;;;6.63;2.30;;;8.00;99.90;;;;;;2603875;54;20909;31
2023/01/14 14:24:31;;;;;;;6.28;2.20;;;8.00;99.90;;;;;;2603937;54;20030;31
2023/01/14 14:27:11;;;;;;;6.05;2.17;;;7.90;99.90;;;;;;2603658;54;20887;31
2023/01/14 14:29:47;;;;;;;6.95;2.45;;;7.90;99.90;;;;;;2603379;54;20022;31
2023/01/14 14:32:24;;;;;;;6.05;2.00;;;7.80;99.90;;;;;;2603753;54;20894;31
2023/01/14 14:35:08;;;;;;;10.45;2.13;;;7.80;99.90;;;;;;2603614;54;20942;31
2023/01/14 14:37:47;;;;;;;5.53;2.33;;;7.80;99.90;;;;;;2603565;54;20959;31
2023/01/14 14:40:30;;;;;;;6.40;2.28;;;7.70;99.90;;;;;;2702314;39;20505;31
2023/01/14 14:43:09;;;;;;;8.40;2.35;;;7.70;99.90;;;;;;2603816;54;20802;31
2023/01/14 14:45:49;;;;;;;6.47;2.08;;;7.70;99.90;;;;;;2603551;54;20022;31
2023/01/14 14:48:24;;;;;;;6.50;2.13;;;7.60;99.90;;;;;;2603604;54;20033;31
2023/01/14 14:51:00;;;;;;;8.40;2.40;;;7.60;99.90;;;;;;2603800;54;19941;31
2023/01/14 14:53:37;;;;;;;8.52;3.05;;;7.60;99.90;;;;;;2603758;54;19973;31
2023/01/14 14:56:12;;;;;;;10.90;2.65;;;7.60;99.90;;;;;;2603574;54;20056;31